• Join FlightAware (Why Join?)
  • Login
  • US Flag 
11:17PM EDT


 

Airport Tracker/Info


-or-


 

Live Flight TrackerFlight Track Log ✈ DAL268 ✈ 28-Jun-2013 ✈ KSFO - KJFK

Flight Track Log - Related Links

Times and Time Zones

All times are in EDT time to prevent confusion due to time zone crossing. See the DAL268 flight status page for this flight to view local times or setup timezone preferences in your user account.

Time Position Orientation Groundspeed Altitude Reporting Facility
EDT Latitude Longitude Course Direction KTS MPH feet Rate Location/Type
02:24PM 37.6150 -122.3810 360° North  Level FlightAware
02:32PM 37.6295 -122.3660 28° Northeast 164 189 500 60 Climbing FlightAware ADS-B
02:32PM 37.6317 -122.3640 36° Northeast 165 190 700 2,640 Climbing FlightAware ADS-B
02:32PM 37.6352 -122.3610 34° Northeast 169 194 900 2,400 Climbing FlightAware ADS-B
02:32PM 37.6375 -122.3580 46° Northeast 171 197 1,100 1,980 Climbing FlightAware ADS-B
02:32PM 37.6405 -122.3540 47° Northeast 176 203 1,200 1,320 Climbing FlightAware ADS-B
02:32PM 37.6485 -122.3440 45° Northeast 192 221 1,500 1,440 Climbing FlightAware ADS-B
02:32PM 37.6581 -122.3310 47° Northeast 204 235 1,900 1,500 Climbing FlightAware ADS-B
02:33PM 37.6663 -122.3210 44° Northeast 221 254 2,200 1,560 Climbing FlightAware ADS-B
02:33PM 37.6776 -122.3060 46° Northeast 238 274 2,600 1,560 Climbing FlightAware ADS-B
02:33PM 37.6899 -122.2910 44° Northeast 252 290 3,000 1,980 Climbing FlightAware ADS-B
02:33PM 37.7022 -122.2750 46° Northeast 260 299 3,600 2,460 Climbing FlightAware ADS-B
02:34PM 37.7153 -122.2570 47° Northeast 268 308 4,300 2,760 Climbing FlightAware ADS-B
02:34PM 37.7401 -122.2240 46° Northeast 271 312 5,700 2,700 Climbing FlightAware ADS-B
02:34PM 37.7547 -122.2040 47° Northeast 271 312 6,400 2,400 Climbing FlightAware ADS-B
02:35PM 37.7681 -122.1860 47° Northeast 282 325 7,000 2,280 Climbing FlightAware ADS-B
02:35PM 37.7868 -122.1620 45° Northeast 285 328 7,800 2,460 Climbing FlightAware ADS-B
02:35PM 37.8009 -122.1440 45° Northeast 288 331 8,500 2,460 Climbing FlightAware ADS-B
02:36PM 37.8166 -122.1250 44° Northeast 295 339 9,100 2,400 Climbing FlightAware ADS-B
02:36PM 37.8255 -122.1140 44° Northeast 296 341 9,500 2,520 Climbing FlightAware ADS-B
02:36PM 37.8385 -122.1010 38° Northeast 296 341 10,000 1,740 Climbing FlightAware ADS-B
02:36PM 37.8755 -122.0670 36° Northeast 321 369 10,800 1,260 Climbing FlightAware ADS-B
02:37PM 37.9159 -122.0310 35° Northeast 353 406 11,400 1,200 Climbing FlightAware ADS-B
02:37PM 37.9578 -121.9930 36° Northeast 377 434 12,100 1,440 Climbing FlightAware ADS-B
02:38PM 38.0051 -121.9510 35° Northeast 394 453 12,900 1,740 Climbing FlightAware ADS-B
02:39PM 38.0593 -121.9010 36° Northeast 407 468 14,100 1,920 Climbing FlightAware ADS-B
02:39PM 38.1410 -121.8270 35° Northeast 423 487 15,800 1,920 Climbing FlightAware
02:41PM 38.3000 -121.6820 36° Northeast 440 506 19,100 1,920 Climbing FlightAware
02:42PM 38.3660 -121.6230 35° Northeast 449 517 20,200 1,740 Climbing FlightAware
02:43PM 38.4440 -121.5440 38° Northeast 453 521 21,600 1,800 Climbing FlightAware
02:43PM 38.4970 -121.4610 51° Northeast 453 521 22,900 1,800 Climbing FlightAware
02:44PM 38.5530 -121.3650 53° Northeast 459 528 24,200 1,680 Climbing FlightAware
02:45PM 38.6241 -121.2420 53° Northeast 466 536 25,700 1,440 Climbing FlightAware ADS-B
02:45PM 38.6687 -121.1650 53° Northeast 471 542 26,400 1,200 Climbing FlightAware ADS-B
02:47PM 38.7940 -120.9480 53° Northeast 487 560 28,400 1,380 Climbing FlightAware
02:48PM 38.8520 -120.8470 54° Northeast 484 557 29,700 1,680 Climbing FlightAware
02:48PM 38.9080 -120.7510 53° Northeast 482 555 30,800 1,620 Climbing FlightAware
02:49PM 38.9600 -120.6610 53° Northeast 472 543 31,900 1,380 Climbing FlightAware
02:50PM 39.0520 -120.5020 53° Northeast 472 543 33,400 1,260 Climbing FlightAware
02:51PM 39.1110 -120.3980 54° Northeast 470 541 34,400 1,200 Climbing FlightAware
02:52PM 39.1630 -120.3070 54° Northeast 471 542 35,100 1,020 Climbing FlightAware
02:53PM 39.2220 -120.2030 54° Northeast 472 543 35,900 960 Climbing FlightAware
02:53PM 39.2740 -120.1120 54° Northeast 473 544 36,500 780 Climbing FlightAware
02:54PM 39.3260 -120.0210 54° Northeast 474 545 37,000 360 Climbing FlightAware
02:55PM 39.3780 -119.9280 54° Northeast 471 542 37,000  Level FlightAware
02:55PM 39.4370 -119.8240 54° Northeast 475 547 37,000  Level FlightAware
02:56PM 39.4990 -119.7130 54° Northeast 477 549 37,000  Level FlightAware
02:57PM 39.5520 -119.6200 54° Northeast 478 550 37,000  Level FlightAware
02:57PM 39.6000 -119.5330 54° Northeast 478 550 37,000  Level FlightAware
02:58PM 39.6630 -119.4190 54° Northeast 480 552 37,000  Level FlightAware
02:59PM 39.7090 -119.3370 54° Northeast 480 552 37,000  Level FlightAware
03:00PM 39.7690 -119.2290 54° Northeast 480 552 37,000  Level FlightAware
03:00PM 39.8450 -119.0910 54° Northeast 481 554 37,000  Level FlightAware
03:01PM 39.8960 -118.9980 54° Northeast 481 554 37,000  Level FlightAware
03:02PM 39.9480 -118.9030 54° Northeast 480 552 37,000  Level FlightAware
03:03PM 40.0070 -118.7950 54° Northeast 479 551 37,000  Level FlightAware
03:03PM 40.0610 -118.6960 55° Northeast 479 551 37,000  Level FlightAware
03:04PM 40.1110 -118.6010 55° Northeast 477 549 37,000  Level FlightAware
03:05PM 40.1480 -118.4990 65° Northeast 475 547 37,000  Level FlightAware
03:05PM 40.1790 -118.3850 70° East 475 547 37,000  Level FlightAware
03:06PM 40.2050 -118.2870 71° East 475 547 37,000  Level FlightAware
03:07PM 40.2420 -118.1540 70° East 474 545 37,000  Level FlightAware
03:07PM 40.2740 -118.0360 70° East 474 545 37,000  Level FlightAware
03:09PM 40.3180 -117.8680 71° East 474 545 37,000  Level FlightAware
03:09PM 40.3490 -117.7560 70° East 473 544 37,000  Level FlightAware
03:10PM 40.3870 -117.6210 70° East 473 544 37,000  Level FlightAware
03:12PM 40.4440 -117.4140 70° East 473 544 37,000  Level FlightAware
03:12PM 40.4670 -117.3320 70° East 473 544 37,000  Level FlightAware
03:13PM 40.4960 -117.2260 70° East 473 544 37,000  Level FlightAware
03:14PM 40.5190 -117.1410 70° East 473 544 37,000  Level FlightAware
03:14PM 40.5500 -117.0310 70° East 473 544 37,000  Level FlightAware
03:19PM 40.7684 -116.1840 71° East 475 547 37,000  Level FlightAware ADS-B
03:19PM 40.7912 -116.0990 70° East 473 544 37,000  Level FlightAware ADS-B
03:21PM 40.8680 -115.8070 71° East 470 541 37,000  Level FlightAware ADS-B
03:24PM 41.0018 -115.2910 71° East 475 547 37,000  Level FlightAware ADS-B
03:25PM 41.0240 -115.2050 71° East 475 547 37,000  Level FlightAware ADS-B
03:25PM 41.0461 -115.1180 71° East 477 549 37,000  Level FlightAware ADS-B
03:26PM 41.0685 -115.0300 71° East 477 549 37,000  Level FlightAware ADS-B
03:27PM 41.0992 -114.9090 71° East 477 549 37,000  Level FlightAware ADS-B
03:27PM 41.1205 -114.8240 72° East 478 550 37,000  Level FlightAware ADS-B
03:28PM 41.1240 -114.8170 56° Northeast 477 549 37,000  Level FlightAware
03:28PM 41.1485 -114.7130 73° East 478 550 37,000  Level FlightAware ADS-B
03:28PM 41.1694 -114.6290 72° East 478 550 37,000  Level FlightAware ADS-B
03:29PM 41.1907 -114.5440 72° East 478 550 37,000  Level FlightAware ADS-B
03:29PM 41.2115 -114.4600 72° East 477 549 37,000  Level FlightAware ADS-B
03:30PM 41.2322 -114.3760 72° East 478 550 37,000  Level FlightAware ADS-B
03:30PM 41.2528 -114.2920 72° East 478 550 37,000  Level FlightAware ADS-B
03:31PM 41.2767 -114.1950 72° East 478 550 37,000  Level FlightAware ADS-B
03:31PM 41.2971 -114.1120 72° East 477 549 37,000  Level FlightAware ADS-B
03:32PM 41.3177 -114.0270 72° East 477 549 37,000  Level FlightAware ADS-B
03:32PM 41.3381 -113.9430 72° East 477 549 37,000  Level FlightAware ADS-B
03:33PM 41.3549 -113.8710 73° East 477 549 37,000  Level FlightAware ADS-B
03:33PM 41.3669 -113.8060 76° East 476 548 37,000  Level FlightAware ADS-B
03:34PM 41.3791 -113.7190 79° East 475 547 37,000  Level FlightAware ADS-B
03:34PM 41.3902 -113.6320 80° East 475 547 37,000  Level FlightAware ADS-B
03:35PM 41.4012 -113.5450 80° East 473 544 37,000  Level FlightAware ADS-B
03:35PM 41.4122 -113.4580 80° East 473 544 37,000  Level FlightAware ADS-B
03:36PM 41.4248 -113.3570 81° East 473 544 37,000  Level FlightAware ADS-B
03:36PM 41.4371 -113.2590 80° East 473 544 37,000  Level FlightAware ADS-B
03:37PM 41.4488 -113.1650 81° East 473 544 37,000  Level FlightAware ADS-B
03:37PM 41.4605 -113.0710 81° East 474 545 37,000  Level FlightAware ADS-B
03:38PM 41.4712 -112.9830 81° East 474 545 37,000  Level FlightAware ADS-B
03:38PM 41.4821 -112.8950 81° East 475 547 37,000  Level FlightAware ADS-B
03:39PM 41.4975 -112.7670 81° East 476 548 37,000  Level FlightAware ADS-B
03:40PM 41.5080 -112.6800 81° East 476 548 37,000  Level FlightAware ADS-B
03:40PM 41.5192 -112.5860 81° East 476 548 37,000  Level FlightAware ADS-B
03:41PM 41.5299 -112.4960 81° East 477 549 37,000  Level FlightAware ADS-B
03:41PM 41.5405 -112.4000 82° East 477 549 37,000  Level FlightAware ADS-B
03:42PM 41.5495 -112.3120 82° East 477 549 37,000  Level FlightAware ADS-B
03:42PM 41.5588 -112.2230 82° East 478 550 37,000  Level FlightAware ADS-B
03:43PM 41.5679 -112.1340 82° East 478 550 37,000  Level FlightAware ADS-B
03:43PM 41.5791 -112.0260 82° East 479 551 37,000  Level FlightAware ADS-B
03:44PM 41.5882 -111.9380 82° East 480 552 37,000  Level FlightAware ADS-B
03:44PM 41.5972 -111.8500 82° East 480 552 37,000  Level FlightAware ADS-B
03:45PM 41.6064 -111.7590 82° East 481 554 37,000  Level FlightAware ADS-B
03:46PM 41.6155 -111.6680 82° East 481 554 37,000  Level FlightAware ADS-B
03:46PM 41.6243 -111.5790 82° East 482 555 37,000  Level FlightAware ADS-B
03:47PM 41.6331 -111.4900 82° East 483 556 37,000  Level FlightAware ADS-B
03:47PM 41.6420 -111.3990 83° East 484 557 37,000  Level FlightAware ADS-B
03:48PM 41.6518 -111.2970 83° East 484 557 37,000  Level FlightAware ADS-B
03:48PM 41.6606 -111.2050 83° East 484 557 37,000  Level FlightAware ADS-B
03:49PM 41.6693 -111.1140 83° East 484 557 37,000  Level FlightAware ADS-B
03:49PM 41.6779 -111.0230 83° East 484 557 37,000  Level FlightAware ADS-B
03:50PM 41.6863 -110.9330 83° East 484 557 37,000  Level FlightAware ADS-B
03:50PM 41.6948 -110.8410 83° East 484 557 37,000  Level FlightAware ADS-B
03:51PM 41.7088 -110.6880 83° East 484 557 37,000  Level FlightAware ADS-B
03:54PM 41.7440 -110.4210 80° East 483 556 37,000  Level FlightAware
03:54PM 41.7540 -110.3260 82° East 483 556 37,000  Level FlightAware
03:55PM 41.7690 -110.1770 82° East 483 556 37,000  Level FlightAware
03:56PM 41.7861 -109.7969 82° East 481 554 37,000  Level Salt Lake Center
03:57PM 41.8028 -109.5958 84° East 484 557 37,000  Level Salt Lake Center
03:58PM 41.8175 -109.4244 83° East 482 555 37,000  Level Salt Lake Center
03:59PM 41.8339 -109.2225 84° East 484 557 37,000  Level Salt Lake Center
04:00PM 41.8469 -109.0492 84° East 485 558 37,000  Level Salt Lake Center
04:01PM 41.8603 -108.8758 84° East 484 557 37,000  Level Salt Lake Center
04:02PM 41.8750 -108.6733 84° East 486 559 37,000  Level Salt Lake Center
04:03PM 41.8881 -108.5003 84° East 485 558 37,000  Level Salt Lake Center
04:05PM 41.9022 -108.2961 85° East 489 563 37,000  Level Salt Lake Center
04:06PM 41.9144 -108.1242 84° East 485 558 37,000  Level Salt Lake Center
04:07PM 41.9275 -107.9200 85° East 490 564 37,000  Level Salt Lake Center
04:08PM 41.9378 -107.7439 85° East 488 562 37,000  Level Denver Center
04:09PM 41.9483 -107.5719 85° East 485 558 37,000  Level Denver Center
04:10PM 41.9611 -107.3686 85° East 488 562 37,000  Level Denver Center
04:15PM 42.0200 -106.3290 85° East 483 556 37,000  Level FlightAware
04:16PM 42.0270 -106.1860 86° East 484 557 37,000  Level FlightAware
04:17PM 42.0330 -106.0680 86° East 486 559 37,000  Level FlightAware
04:18PM 42.0400 -105.9260 86° East 487 560 37,000  Level FlightAware
04:18PM 42.0460 -105.8180 86° East 488 562 37,000  Level FlightAware
04:19PM 42.0540 -105.6560 86° East 488 562 37,000  Level FlightAware
04:21PM 42.0650 -105.3880 87° East 489 563 37,000  Level FlightAware
04:21PM 42.0710 -105.2500 87° East 489 563 37,000  Level FlightAware
04:22PM 42.0770 -105.1440 86° East 489 563 37,000  Level FlightAware
04:22PM 42.0853 -105.0430 84° East 488 562 37,000  Level FlightAware ADS-B
04:23PM 42.0938 -104.9460 83° East 488 562 37,000  Level FlightAware ADS-B
04:23PM 42.1019 -104.8540 83° East 488 562 37,000  Level FlightAware ADS-B
04:24PM 42.1108 -104.7530 83° East 488 562 37,000  Level FlightAware ADS-B
04:25PM 42.1187 -104.6610 83° East 487 560 37,000  Level FlightAware ADS-B
04:25PM 42.1265 -104.5690 83° East 487 560 37,000  Level FlightAware ADS-B
04:26PM 42.1344 -104.4750 84° East 486 559 37,000  Level FlightAware ADS-B
04:26PM 42.1420 -104.3840 84° East 486 559 37,000  Level FlightAware ADS-B
04:27PM 42.1496 -104.2920 84° East 484 557 37,000  Level FlightAware ADS-B
04:27PM 42.1571 -104.2000 84° East 483 556 37,000  Level FlightAware ADS-B
04:28PM 42.1660 -104.0890 84° East 482 555 37,000  Level FlightAware ADS-B
04:28PM 42.1733 -103.9980 84° East 483 556 37,000  Level FlightAware ADS-B
04:29PM 42.1805 -103.9080 84° East 482 555 37,000  Level FlightAware ADS-B
04:29PM 42.1876 -103.8170 84° East 482 555 37,000  Level FlightAware ADS-B
04:30PM 42.1945 -103.7270 84° East 482 555 37,000  Level FlightAware ADS-B
04:30PM 42.2015 -103.6360 84° East 482 555 37,000  Level FlightAware ADS-B
04:31PM 42.2084 -103.5440 84° East 482 555 37,000  Level FlightAware ADS-B
04:31PM 42.2169 -103.4310 84° East 480 552 37,000  Level FlightAware ADS-B
04:32PM 42.2239 -103.3370 84° East 480 552 37,000  Level FlightAware ADS-B
04:33PM 42.2319 -103.2270 84° East 480 552 37,000  Level FlightAware ADS-B
04:33PM 42.2386 -103.1350 84° East 480 552 37,000  Level FlightAware ADS-B
04:34PM 42.2460 -103.0310 84° East 481 554 37,000  Level FlightAware ADS-B
04:34PM 42.2533 -102.9270 85° East 481 554 37,000  Level FlightAware ADS-B
04:35PM 42.2612 -102.8130 85° East 481 554 37,000  Level FlightAware ADS-B
04:35PM 42.2689 -102.7020 85° East 481 554 37,000  Level FlightAware ADS-B
04:36PM 42.2778 -102.5700 85° East 483 556 37,000  Level FlightAware ADS-B
04:37PM 42.2838 -102.4800 85° East 483 556 37,000  Level FlightAware ADS-B
04:37PM 42.2910 -102.3680 85° East 483 556 37,000  Level FlightAware ADS-B
04:38PM 42.2998 -102.2310 85° East 483 556 37,000  Level FlightAware ADS-B
04:39PM 42.3086 -102.1214 85° East 485 558 37,000  Level Denver Center
04:40PM 42.3175 -101.9506 86° East 480 552 37,000  Level Denver Center
04:41PM 42.3300 -101.7636 85° East 488 562 37,000  Level Denver Center
04:42PM 42.3408 -101.5619 86° East 482 555 37,000  Level Denver Center
04:43PM 42.3514 -101.3875 85° East 486 559 37,000  Level Denver Center
04:44PM 42.3631 -101.1842 85° East 487 560 37,000  Level Denver Center
04:45PM 42.3706 -101.0119 87° East 481 554 37,000  Level Denver Center
04:46PM 42.3819 -100.8072 86° East 484 557 37,000  Level Denver Center
04:52PM 42.4335 -99.6885 86° East 493 567 37,000  Level FlightAware ADS-B
04:53PM 42.4373 -99.5952 87° East 493 567 37,000  Level FlightAware ADS-B
04:53PM 42.4410 -99.5024 87° East 494 568 37,000  Level FlightAware ADS-B
04:54PM 42.4447 -99.4085 87° East 494 568 37,000  Level FlightAware ADS-B
04:54PM 42.4483 -99.3156 87° East 494 568 37,000  Level FlightAware ADS-B
04:56PM 42.4590 -99.0261 87° East 494 568 37,000  Level FlightAware ADS-B
04:56PM 42.4623 -98.9300 87° East 495 570 37,000  Level FlightAware ADS-B
04:57PM 42.4655 -98.8367 87° East 496 571 37,000  Level FlightAware ADS-B
04:57PM 42.4686 -98.7442 87° East 495 570 37,000  Level FlightAware ADS-B
04:58PM 42.4726 -98.6327 87° East 496 571 37,000  Level FlightAware ADS-B
04:58PM 42.4775 -98.5398 86° East 496 571 37,000  Level FlightAware ADS-B
04:59PM 42.4849 -98.4017 86° East 497 572 37,000  Level FlightAware ADS-B
05:00PM 42.4895 -98.3087 86° East 497 572 37,000  Level FlightAware ADS-B
05:00PM 42.4941 -98.2127 86° East 497 572 37,000  Level FlightAware ADS-B
05:01PM 42.4984 -98.1190 86° East 498 573 37,000  Level FlightAware ADS-B
05:01PM 42.5028 -98.0233 86° East 498 573 37,000  Level FlightAware ADS-B
05:02PM 42.5069 -97.9291 87° East 499 574 37,000  Level FlightAware ADS-B
05:02PM 42.5110 -97.8354 87° East 500 575 37,000  Level FlightAware ADS-B
05:03PM 42.5153 -97.7376 87° East 499 574 37,000  Level FlightAware ADS-B
05:03PM 42.5192 -97.6432 87° East 500 575 37,000  Level FlightAware ADS-B
05:04PM 42.5231 -97.5493 87° East 500 575 37,000  Level FlightAware ADS-B
05:04PM 42.5270 -97.4535 87° East 500 575 37,000  Level FlightAware ADS-B
05:05PM 42.5309 -97.3590 87° East 500 575 37,000  Level FlightAware ADS-B
05:05PM 42.5346 -97.2625 87° East 501 577 37,000  Level FlightAware ADS-B
05:06PM 42.5382 -97.1691 87° East 501 577 37,000  Level FlightAware ADS-B
05:06PM 42.5418 -97.0748 87° East 501 577 37,000  Level FlightAware ADS-B
05:07PM 42.5455 -96.9742 87° East 501 577 37,000  Level FlightAware ADS-B
05:07PM 42.5488 -96.8797 87° East 501 577 37,000  Level FlightAware ADS-B
05:08PM 42.5522 -96.7855 87° East 502 578 37,000  Level FlightAware ADS-B
05:08PM 42.5555 -96.6889 87° East 501 577 37,000  Level FlightAware ADS-B
05:09PM 42.5587 -96.5929 87° East 500 575 37,000  Level FlightAware ADS-B
05:09PM 42.5617 -96.4989 87° East 499 574 37,000  Level FlightAware ADS-B
05:10PM 42.5647 -96.4029 88° East 498 573 37,000  Level FlightAware ADS-B
05:10PM 42.5676 -96.3090 88° East 497 572 37,000  Level FlightAware ADS-B
05:11PM 42.5705 -96.2126 88° East 497 572 37,000  Level FlightAware ADS-B
05:11PM 42.5733 -96.1179 88° East 496 571 37,000  Level FlightAware ADS-B
05:12PM 42.5760 -96.0210 88° East 497 572 37,000  Level FlightAware ADS-B
05:12PM 42.5786 -95.9271 88° East 498 573 37,000  Level FlightAware ADS-B
05:13PM 42.5811 -95.8327 88° East 498 573 37,000  Level FlightAware ADS-B
05:13PM 42.5836 -95.7384 88° East 499 574 37,000  Level FlightAware ADS-B
05:14PM 42.5860 -95.6430 88° East 501 577 37,000  Level FlightAware ADS-B
05:14PM 42.5883 -95.5450 88° East 503 579 37,000  Level FlightAware ADS-B
05:15PM 42.5906 -95.4498 88° East 504 580 37,000  Level FlightAware ADS-B
05:15PM 42.5927 -95.3526 88° East 505 581 37,000  Level FlightAware ADS-B
05:16PM 42.5948 -95.2564 88° East 507 583 37,000  Level FlightAware ADS-B
05:16PM 42.5968 -95.1583 88° East 508 585 37,000  Level FlightAware ADS-B
05:17PM 42.5987 -95.0614 88° East 508 585 37,000  Level FlightAware ADS-B
05:17PM 42.6006 -94.9619 88° East 508 585 37,000  Level FlightAware ADS-B
05:18PM 42.6024 -94.8615 89° East 508 585 37,000  Level FlightAware ADS-B
05:18PM 42.6041 -94.7660 89° East 509 586 37,000  Level FlightAware ADS-B
05:19PM 42.6057 -94.6689 89° East 509 586 37,000  Level FlightAware ADS-B
05:20PM 42.6075 -94.5539 89° East 509 586 37,000  Level FlightAware ADS-B
05:20PM 42.6089 -94.4585 89° East 510 587 37,000  Level FlightAware ADS-B
05:21PM 42.6103 -94.3586 89° East 512 589 37,000  Level FlightAware ADS-B
05:21PM 42.6120 -94.2260 89° East 512 589 37,000  Level FlightAware
05:21PM 42.6121 -94.2026 90° East 512 589 37,000  Level FlightAware ADS-B
05:22PM 42.6129 -94.0997 89° East 512 589 37,000  Level FlightAware ADS-B
05:22PM 42.6136 -93.9985 89° East 512 589 37,000  Level FlightAware ADS-B
05:23PM 42.6144 -93.8919 89° East 511 588 37,000  Level FlightAware ADS-B
05:24PM 42.6150 -93.7895 90° East 512 589 37,000  Level FlightAware ADS-B
05:24PM 42.6155 -93.6930 90° East 512 589 37,000  Level FlightAware ADS-B
05:25PM 42.6160 -93.5400 90° East 512 589 37,000  Level FlightAware
05:26PM 42.6160 -93.3850 90° East 512 589 37,000  Level FlightAware
05:26PM 42.6170 -93.2530 89° East 511 588 37,000  Level FlightAware
05:27PM 42.6170 -93.1110 90° East 511 588 37,000  Level FlightAware
05:28PM 42.6170 -92.9870 90° East 512 589 37,000  Level FlightAware
05:28PM 42.6160 -92.8420 90° East 514 592 37,000  Level FlightAware
05:29PM 42.6160 -92.7040 90° East 516 594 37,000 60 Level FlightAware
05:30PM 42.6150 -92.5450 90° East 518 596 37,100 780 Climbing FlightAware
05:31PM 42.6140 -92.4040 91° East 511 588 38,200 1,200 Climbing FlightAware
05:32PM 42.6130 -92.2530 90° East 502 578 39,000 540 Climbing FlightAware
05:32PM 42.6120 -92.1310 91° East 493 567 39,000  Level FlightAware
05:33PM 42.6110 -92.0020 91° East 495 570 39,000  Level FlightAware
05:34PM 42.6090 -91.8620 91° East 503 579 39,000  Level FlightAware
05:34PM 42.6080 -91.7420 91° East 510 587 39,000  Level FlightAware
05:35PM 42.6060 -91.5740 91° East 515 593 39,000  Level FlightAware
05:36PM 42.6030 -91.4190 91° East 518 596 39,000  Level FlightAware
05:37PM 42.6010 -91.2770 91° East 516 594 39,000  Level FlightAware
05:37PM 42.5990 -91.1640 91° East 514 592 39,000  Level FlightAware
05:38PM 42.5960 -91.0160 92° East 515 593 39,000  Level FlightAware
05:39PM 42.5940 -90.8850 91° East 512 589 39,000  Level FlightAware
05:39PM 42.5910 -90.7450 92° East 506 582 39,000  Level FlightAware
05:40PM 42.5890 -90.6340 91° East 502 578 39,000  Level FlightAware
05:41PM 42.5860 -90.4960 92° East 499 574 39,000  Level FlightAware
05:42PM 42.5820 -90.3530 92° East 495 570 39,000  Level FlightAware
05:42PM 42.5790 -90.2250 92° East 492 566 39,000  Level FlightAware
05:43PM 42.5760 -90.1000 92° East 491 565 39,000  Level FlightAware
05:44PM 42.5720 -89.9670 92° East 491 565 39,000  Level FlightAware
05:44PM 42.5680 -89.8360 92° East 492 566 39,000  Level FlightAware
05:45PM 42.5650 -89.7150 92° East 493 567 39,000  Level FlightAware
05:46PM 42.5600 -89.5710 93° East 494 568 39,000  Level FlightAware
05:46PM 42.5560 -89.4480 92° East 496 571 39,000  Level FlightAware
05:47PM 42.5520 -89.3150 92° East 496 571 39,000  Level FlightAware
05:48PM 42.5470 -89.1870 93° East 495 570 39,000  Level FlightAware
05:49PM 42.5430 -89.0500 92° East 495 570 39,000  Level FlightAware
05:49PM 42.5380 -88.9310 93° East 494 568 39,000  Level FlightAware
05:50PM 42.5340 -88.8140 93° East 493 567 39,000  Level FlightAware
05:50PM 42.5300 -88.7200 93° East 492 566 39,000  Level FlightAware
05:51PM 42.5250 -88.5890 93° East 491 565 39,000  Level FlightAware
05:52PM 42.5190 -88.4460 93° East 492 566 39,000  Level FlightAware
05:52PM 42.5160 -88.3730 93° East 492 566 39,000  Level FlightAware
05:53PM 42.5110 -88.2370 93° East 492 566 39,000  Level FlightAware
05:54PM 42.5050 -88.1040 93° East 492 566 39,000  Level FlightAware
05:54PM 42.5000 -87.9750 93° East 492 566 39,000  Level FlightAware
05:55PM 42.5000 -87.7770 90° East 491 565 39,000  Level FlightAware
05:56PM 42.4990 -87.6380 91° East 490 564 39,000  Level FlightAware
05:57PM 42.4990 -87.5160 90° East 487 560 39,000  Level FlightAware
05:58PM 42.4990 -87.3750 90° East 484 557 39,000  Level FlightAware
05:58PM 42.4980 -87.2520 91° East 483 556 39,000  Level FlightAware
05:59PM 42.4970 -87.1770 91° East 483 556 39,000  Level FlightAware
05:59PM 42.4960 -87.0460 91° East 484 557 39,000  Level FlightAware
06:00PM 42.4950 -86.8810 90° East 485 558 39,000  Level FlightAware
06:01PM 42.4940 -86.7430 91° East 486 559 39,000  Level FlightAware
06:02PM 42.4920 -86.6260 91° East 487 560 39,000  Level FlightAware
06:02PM 42.4910 -86.4980 91° East 487 560 39,000  Level FlightAware
06:03PM 42.4890 -86.3740 91° East 487 560 39,000  Level FlightAware
06:04PM 42.4870 -86.2330 91° East 486 559 39,000  Level FlightAware
06:05PM 42.4850 -86.1120 91° East 485 558 39,000  Level FlightAware
06:05PM 42.4830 -85.9740 91° East 485 558 39,000  Level FlightAware
06:06PM 42.4800 -85.8470 92° East 484 557 39,000  Level FlightAware
06:07PM 42.4780 -85.7240 91° East 484 557 39,000  Level FlightAware
06:07PM 42.4760 -85.6090 91° East 483 556 39,000  Level FlightAware
06:08PM 42.4730 -85.4770 92° East 483 556 39,000  Level FlightAware
06:09PM 42.4700 -85.3410 92° East 482 555 39,000  Level FlightAware
06:09PM 42.4670 -85.2200 92° East 482 555 39,000  Level FlightAware
06:10PM 42.4640 -85.0920 92° East 483 556 39,000  Level FlightAware
06:11PM 42.4590 -84.9180 92° East 483 556 39,000  Level FlightAware
06:12PM 42.4550 -84.7680 92° East 483 556 39,000  Level FlightAware
06:13PM 42.4520 -84.6540 92° East 482 555 39,000  Level FlightAware
06:13PM 42.4510 -84.5140 91° East 480 552 39,000  Level FlightAware
06:14PM 42.4540 -84.4000 88° East 479 551 39,000  Level FlightAware
06:15PM 42.4614 -84.2158 88° East 479 551 39,000  Level Chicago Center
06:16PM 42.4708 -84.0364 86° East 480 552 39,000  Level Chicago Center
06:17PM 42.4775 -83.8567 87° East 479 551 39,000  Level Chicago Center
06:18PM 42.4858 -83.6775 86° East 479 551 39,000  Level Chicago Center
06:24PM 42.5190 -82.5740 86° East 477 549 39,000  Level FlightAware
06:28PM 42.5350 -81.9360 88° East 479 551 39,000  Level FlightAware
06:29PM 42.5370 -81.8170 89° East 479 551 39,000  Level FlightAware
06:30PM 42.5410 -81.6430 88° East 480 552 39,000  Level FlightAware
06:30PM 42.5430 -81.5080 89° East 481 554 39,000  Level FlightAware
06:31PM 42.5450 -81.3620 89° East 481 554 39,000  Level FlightAware
06:32PM 42.5470 -81.2360 89° East 481 554 39,000  Level FlightAware
06:32PM 42.5490 -81.1100 89° East 482 555 39,000  Level FlightAware
06:33PM 42.5510 -80.9830 89° East 483 556 39,000  Level FlightAware
06:34PM 42.5520 -80.8610 89° East 484 557 39,000  Level FlightAware
06:34PM 42.5540 -80.7410 89° East 485 558 39,000  Level FlightAware
06:36PM 42.5570 -80.3820 89° East 487 560 39,000  Level FlightAware
06:37PM 42.5580 -80.2580 89° East 487 560 39,000  Level FlightAware
06:38PM 42.5590 -80.1300 89° East 486 559 39,000  Level FlightAware
06:38PM 42.5600 -80.0170 89° East 485 558 39,000  Level FlightAware
06:39PM 42.5600 -79.8890 90° East 485 558 39,000  Level FlightAware
06:40PM 42.5600 -79.7510 90° East 484 557 39,000  Level FlightAware
06:40PM 42.5610 -79.6700 89° East 484 557 39,000  Level FlightAware
06:41PM 42.5550 -79.4920 93° East 482 555 39,000  Level FlightAware
06:42PM 42.5440 -79.3830 98° East 482 555 39,000  Level FlightAware
06:43PM 42.5300 -79.2380 97° East 483 556 39,000  Level FlightAware
06:43PM 42.5180 -79.1140 97° East 486 559 39,000  Level FlightAware
06:44PM 42.5060 -78.9920 98° East 488 562 39,000 -420 Level FlightAware
06:49PM 42.4180 -78.1510 98° East 493 567 37,000 -420 Descending FlightAware
06:50PM 42.4030 -77.9920 97° East 495 570 37,000  Level FlightAware
06:50PM 42.3930 -77.8740 97° East 499 574 37,000  Level FlightAware
06:51PM 42.3990 -77.7330 87° East 500 575 37,000  Level FlightAware
06:52PM 42.4090 -77.5940 84° East 502 578 37,000  Level FlightAware
06:52PM 42.4210 -77.4590 83° East 502 578 37,000 -300 Level FlightAware
06:53PM 42.4310 -77.3470 83° East 501 577 36,600 -720 Descending FlightAware
06:54PM 42.4440 -77.2010 83° East 497 572 36,000 -900 Descending FlightAware
06:54PM 42.4540 -77.0760 84° East 494 568 35,300 -660 Descending FlightAware
06:55PM 42.4670 -76.9210 83° East 489 563 35,000 -240 Descending FlightAware
06:56PM 42.4780 -76.7880 84° East 492 566 35,000  Level FlightAware
06:57PM 42.4880 -76.6660 84° East 496 571 35,000  Level FlightAware
06:58PM 42.5060 -76.4460 84° East 501 577 35,000  Level FlightAware
06:59PM 42.5040 -76.2990 91° East 490 564 35,000  Level FlightAware
06:59PM 42.4650 -76.1880 115° Southeast 478 550 35,000  Level FlightAware
07:01PM 42.3690 -75.9770 122° Southeast 480 552 35,000  Level FlightAware
07:02PM 42.2750 -75.7750 122° Southeast 478 550 35,000  Level FlightAware
07:04PM 42.1510 -75.5060 122° Southeast 480 552 35,000  Level FlightAware
07:04PM 42.1340 -75.4682 121° Southeast 479 551 35,000  Level FlightAware ADS-B
07:05PM 42.0931 -75.3804 122° Southeast 479 551 35,000  Level FlightAware ADS-B
07:05PM 42.0589 -75.2938 118° Southeast 485 558 35,000 -240 Level FlightAware ADS-B
07:06PM 42.0330 -75.2025 111° Southeast 491 565 34,800 -1,080 Descending FlightAware ADS-B
07:06PM 42.0100 -75.1137 109° East 490 564 33,900 -2,160 Descending FlightAware ADS-B
07:07PM 41.9873 -75.0256 109° East 498 573 32,600 -2,580 Descending FlightAware ADS-B
07:07PM 41.9645 -74.9377 109° East 507 583 31,300 -2,580 Descending FlightAware ADS-B
07:08PM 41.9390 -74.8398 109° East 508 585 29,900 -2,580 Descending FlightAware ADS-B
07:08PM 41.9145 -74.7462 109° East 499 574 28,600 -1,860 Descending FlightAware ADS-B
07:09PM 41.8911 -74.6581 110° East 496 571 28,000 -600 Descending FlightAware ADS-B
07:09PM 41.8659 -74.5635 110° East 496 571 28,000  Level FlightAware ADS-B
07:10PM 41.8426 -74.4762 110° East 498 573 28,000  Level FlightAware ADS-B
07:10PM 41.8188 -74.3872 110° East 496 571 28,000  Level FlightAware ADS-B
07:11PM 41.7967 -74.3173 113° Southeast 486 559 28,000  Level FlightAware ADS-B
07:11PM 41.7905 -74.3032 121° Southeast 482 555 28,000 -480 Level FlightAware ADS-B
07:11PM 41.7819 -74.2858 124° Southeast 479 551 27,900 -480 Descending FlightAware ADS-B
07:11PM 41.7737 -74.2716 128° Southeast 475 547 27,900  Level FlightAware ADS-B
07:11PM 41.7558 -74.2455 133° Southeast 474 545 27,900 -300 Level FlightAware ADS-B
07:11PM 41.7405 -74.2276 139° Southeast 473 544 27,800 -420 Descending FlightAware ADS-B
07:12PM 41.7288 -74.2160 143° Southeast 468 539 27,800 -360 Level FlightAware ADS-B
07:12PM 41.7083 -74.1992 149° Southeast 457 526 27,700 -720 Descending FlightAware ADS-B
07:12PM 41.6818 -74.1829 155° Southeast 445 512 27,500 -1,980 Descending FlightAware ADS-B
07:13PM 41.6209 -74.1570 162° South 438 504 26,200 -2,820 Descending FlightAware ADS-B
07:13PM 41.5605 -74.1332 164° South 442 509 24,600 -3,000 Descending FlightAware ADS-B
07:14PM 41.4939 -74.1068 163° South 429 494 23,000 -3,060 Descending FlightAware ADS-B
07:14PM 41.4368 -74.0841 163° South 420 483 21,300 -3,180 Descending FlightAware ADS-B
07:14PM 41.4117 -74.0754 165° South 424 488 20,700 -2,400 Descending FlightAware ADS-B
07:15PM 41.3892 -74.0706 171° South 420 483 20,300 -1,200 Descending FlightAware ADS-B
07:15PM 41.3520 -74.0696 179° South 398 458 20,100 -360 Descending FlightAware ADS-B
07:15PM 41.2978 -74.0768 186° South 379 436 20,000 -120 Descending FlightAware ADS-B
07:16PM 41.2436 -74.0847 186° South 374 430 20,000  Level FlightAware ADS-B
07:16PM 41.1908 -74.0930 187° South 377 434 20,000 -300 Level FlightAware ADS-B
07:17PM 41.1373 -74.1013 187° South 381 438 19,700 -720 Descending FlightAware ADS-B
07:17PM 41.1146 -74.1048 187° South 381 438 19,500 -1,020 Descending FlightAware ADS-B
07:17PM 41.0841 -74.1095 187° South 378 435 19,200 -780 Descending FlightAware ADS-B
07:18PM 41.0622 -74.1128 186° South 378 435 19,100 -420 Descending FlightAware ADS-B
07:18PM 41.0319 -74.1174 187° South 377 434 19,000 -240 Descending FlightAware ADS-B
07:18PM 41.0072 -74.1212 187° South 375 432 19,000  Level FlightAware ADS-B
07:18PM 40.9802 -74.1252 186° South 363 418 19,000  Level FlightAware ADS-B
07:19PM 40.9574 -74.1279 185° South 350 403 19,000 -300 Level FlightAware ADS-B
07:19PM 40.9471 -74.1277 179° South 348 400 18,900 -600 Descending FlightAware ADS-B
07:19PM 40.9406 -74.1271 176° South 347 399 18,900 -540 Level FlightAware ADS-B
07:19PM 40.9286 -74.1251 173° South 345 397 18,800 -780 Descending FlightAware ADS-B
07:19PM 40.8894 -74.1166 171° South 333 383 18,500 -840 Descending FlightAware ADS-B
07:19PM 40.8822 -74.1150 170° South 328 377 18,400 -780 Descending FlightAware ADS-B
07:20PM 40.8413 -74.1047 169° South 317 365 18,100 -600 Descending FlightAware ADS-B
07:20PM 40.8364 -74.1032 167° South 311 358 18,100 -1,320 Level FlightAware ADS-B
07:21PM 40.7963 -74.0916 168° South 309 356 17,400 -1,620 Descending FlightAware ADS-B
07:21PM 40.7943 -74.0910 167° South 309 356 17,300 -2,100 Descending FlightAware ADS-B
07:21PM 40.7638 -74.0825 168° South 313 360 16,600 -1,800 Descending FlightAware ADS-B
07:21PM 40.7558 -74.0804 169° South 312 359 16,500 -420 Descending FlightAware ADS-B
07:21PM 40.7206 -74.0723 170° South 313 360 16,400 -180 Descending FlightAware ADS-B
07:22PM 40.7016 -74.0679 170° South 313 360 16,400  Level FlightAware ADS-B
07:22PM 40.6768 -74.0620 170° South 315 362 16,400  Level FlightAware ADS-B
07:22PM 40.6535 -74.0565 170° South 317 365 16,400  Level FlightAware ADS-B
07:22PM 40.6335 -74.0516 169° South 315 362 16,400  Level FlightAware ADS-B
07:23PM 40.6124 -74.0463 169° South 315 362 16,400  Level FlightAware ADS-B
07:23PM 40.6074 -74.0445 165° South 317 365 16,400 -600 Level FlightAware ADS-B
07:23PM 40.5959 -74.0386 159° South 324 373 16,300 -1,080 Descending FlightAware ADS-B
07:23PM 40.5554 -74.0101 152° Southeast 318 366 15,700 -1,260 Descending FlightAware ADS-B
07:24PM 40.5267 -73.9896 151° Southeast 315 362 15,200 -1,140 Descending FlightAware ADS-B
07:24PM 40.4877 -73.9648 154° Southeast 304 350 14,700 -1,140 Descending FlightAware ADS-B
07:25PM 40.4571 -73.9460 155° Southeast 297 342 14,200 -1,800 Descending FlightAware ADS-B
07:25PM 40.4203 -73.9241 156° South 288 331 13,100 -2,400 Descending FlightAware ADS-B
07:26PM 40.3842 -73.9017 155° Southeast 287 330 11,800 -2,580 Descending FlightAware ADS-B
07:26PM 40.3584 -73.8851 154° Southeast 284 327 10,900 -2,460 Descending FlightAware ADS-B
07:26PM 40.3349 -73.8690 152° Southeast 281 323 10,100 -2,340 Descending FlightAware ADS-B
07:26PM 40.3293 -73.8641 146° Southeast 284 327 9,900 -2,400 Descending FlightAware ADS-B
07:27PM 40.3249 -73.8592 140° Southeast 287 330 9,700 -2,580 Descending FlightAware ADS-B
07:27PM 40.3219 -73.8550 133° Southeast 289 333 9,600 -2,280 Descending FlightAware ADS-B
07:27PM 40.3178 -73.8478 127° Southeast 292 336 9,400 -2,400 Descending FlightAware ADS-B
07:27PM 40.3146 -73.8403 119° Southeast 296 341 9,200 -1,800 Descending FlightAware ADS-B
07:27PM 40.3077 -73.8209 115° Southeast 300 345 8,900 -1,740 Descending FlightAware ADS-B
07:27PM 40.2989 -73.7941 113° Southeast 303 349 8,400 -1,740 Descending FlightAware ADS-B
07:27PM 40.2899 -73.7672 114° Southeast 303 349 8,000 -1,380 Descending FlightAware ADS-B
07:28PM 40.2791 -73.7344 113° Southeast 299 344 7,600 -1,200 Descending FlightAware ADS-B
07:28PM 40.2758 -73.7154 103° East 301 346 7,400 -900 Descending FlightAware ADS-B
07:28PM 40.2756 -73.7095 93° East 301 346 7,400 -900 Level FlightAware ADS-B
07:28PM 40.2759 -73.7039 86° East 301 346 7,300 -1,320 Descending FlightAware ADS-B
07:28PM 40.2799 -73.6845 75° East 301 346 7,100 -1,380 Descending FlightAware ADS-B
07:28PM 40.2850 -73.6731 60° Northeast 301 346 6,900 -1,440 Descending FlightAware ADS-B
07:29PM 40.2945 -73.6605 45° Northeast 300 345 6,700 -1,140 Descending FlightAware ADS-B
07:29PM 40.3015 -73.6544 34° Northeast 298 343 6,600 -1,500 Descending FlightAware ADS-B
07:29PM 40.3087 -73.6487 31° Northeast 297 342 6,400 -1,500 Descending FlightAware ADS-B
07:29PM 40.3300 -73.6334 29° Northeast 298 343 6,000 -1,380 Descending FlightAware ADS-B
07:29PM 40.3507 -73.6187 28° Northeast 297 342 5,600 -1,200 Descending FlightAware ADS-B
07:30PM 40.3787 -73.5980 29° Northeast 293 337 5,200 -1,140 Descending FlightAware ADS-B
07:30PM 40.4052 -73.5731 36° Northeast 291 335 4,700 -600 Descending FlightAware ADS-B
07:31PM 40.4800 -73.5280 25° Northeast 285 328 4,400 -240 Descending FlightAware
07:32PM 40.5090 -73.5150 19° North 285 328 4,400  Level FlightAware
07:32PM 40.5500 -73.4960 19° North 284 327 4,400  Level FlightAware
07:33PM 40.5850 -73.4810 18° North 284 327 4,400  Level FlightAware
07:33PM 40.6140 -73.4680 19° North 267 307 4,400  Level FlightAware
07:33PM 40.6480 -73.4560 15° North 248 285 4,400  Level FlightAware
07:34PM 40.6800 -73.4620 352° North 249 287 4,400  Level FlightAware
07:34PM 40.7120 -73.4690 351° North 250 288 4,400 -240 Level FlightAware
07:35PM 40.7390 -73.4890 331° Northwest 227 261 4,200 -660 Descending FlightAware
07:35PM 40.7440 -73.4980 306° West 222 255 4,000 -840 Descending FlightAware
07:36PM 40.7590 -73.5320 300° West 205 236 3,700 -660 Descending FlightAware
07:36PM 40.7600 -73.5520 274° West 196 226 3,500 -1,260 Descending FlightAware
07:36PM 40.7610 -73.5860 272° West 204 235 2,800 -1,200 Descending FlightAware
07:37PM 40.7610 -73.6210 270° West 204 235 2,400 -480 Descending FlightAware
07:37PM 40.7560 -73.6560 259° West 198 228 2,400  Level FlightAware
07:38PM 40.7410 -73.6780 228° Southwest 176 203 2,400 -360 Level FlightAware
07:38PM 40.7230 -73.6940 214° Southwest 172 198 2,100 -780 Descending FlightAware
07:39PM 40.7030 -73.7100 211° Southwest 158 182 1,700 -720 Descending FlightAware
07:39PM 40.6870 -73.7220 210° Southwest 135 155 1,400 -720 Descending FlightAware
07:39PM 40.6740 -73.7330 213° Southwest 130 150 1,100 -720 Descending FlightAware
07:40PM 40.6590 -73.7440 209° Southwest 130 150 800 -660 Descending FlightAware